sensor_id;sensor_type;location;lat;lon;timestamp;pressure;altitude;pressure_sealevel;temperature;humidity
72370;BME280;60343;-32.030;115.880;2023-03-19T00:01:03;102174.59;;;22.90;48.27
72370;BME280;60343;-32.030;115.880;2023-03-19T00:03:38;102170.34;;;23.00;47.92
72370;BME280;60343;-32.030;115.880;2023-03-19T00:06:12;102178.97;;;23.29;47.22
72370;BME280;60343;-32.030;115.880;2023-03-19T00:08:47;102188.53;;;23.38;46.67
72370;BME280;60343;-32.030;115.880;2023-03-19T00:11:21;102194.13;;;23.49;47.21
72370;BME280;60343;-32.030;115.880;2023-03-19T00:14:02;102179.47;;;23.87;46.51
72370;BME280;60343;-32.030;115.880;2023-03-19T00:16:36;102184.63;;;23.95;45.96
72370;BME280;60343;-32.030;115.880;2023-03-19T00:19:11;102187.13;;;24.15;45.19
72370;BME280;60343;-32.030;115.880;2023-03-19T00:21:45;102192.28;;;24.05;44.90
72370;BME280;60343;-32.030;115.880;2023-03-19T00:24:20;102198.66;;;24.23;45.01
72370;BME280;60343;-32.030;115.880;2023-03-19T00:26:55;102190.19;;;24.43;44.70
72370;BME280;60343;-32.030;115.880;2023-03-19T00:29:35;102189.28;;;24.79;44.11
72370;BME280;60343;-32.030;115.880;2023-03-19T00:32:10;102187.00;;;24.76;43.80
72370;BME280;60343;-32.030;115.880;2023-03-19T00:34:44;102184.03;;;24.77;43.30
72370;BME280;60343;-32.030;115.880;2023-03-19T00:37:19;102183.88;;;24.72;43.91
72370;BME280;60343;-32.030;115.880;2023-03-19T00:39:54;102181.75;;;25.04;43.30
72370;BME280;60343;-32.030;115.880;2023-03-19T00:42:28;102181.19;;;25.26;42.89
72370;BME280;60343;-32.030;115.880;2023-03-19T00:45:10;102191.13;;;25.50;42.25
72370;BME280;60343;-32.030;115.880;2023-03-19T00:47:44;102176.38;;;25.74;42.25
72370;BME280;60343;-32.030;115.880;2023-03-19T00:50:19;102183.94;;;25.37;42.13
72370;BME280;60343;-32.030;115.880;2023-03-19T00:52:53;102185.47;;;25.21;42.37
72370;BME280;60343;-32.030;115.880;2023-03-19T00:55:28;102170.81;;;25.04;42.47
72370;BME280;60343;-32.030;115.880;2023-03-19T00:58:02;102187.38;;;25.21;42.54
72370;BME280;60343;-32.030;115.880;2023-03-19T01:00:42;102189.31;;;25.32;42.20
72370;BME280;60343;-32.030;115.880;2023-03-19T01:03:18;102182.69;;;25.75;41.45
72370;BME280;60343;-32.030;115.880;2023-03-19T01:05:53;102178.97;;;25.81;41.58
72370;BME280;60343;-32.030;115.880;2023-03-19T01:08:27;102187.91;;;25.88;41.24
72370;BME280;60343;-32.030;115.880;2023-03-19T01:11:06;102180.75;;;25.98;41.34
72370;BME280;60343;-32.030;115.880;2023-03-19T01:13:41;102185.47;;;26.26;40.74
72370;BME280;60343;-32.030;115.880;2023-03-19T01:16:22;102176.16;;;26.16;40.01
72370;BME280;60343;-32.030;115.880;2023-03-19T01:18:56;102175.34;;;26.15;40.10
72370;BME280;60343;-32.030;115.880;2023-03-19T01:24:45;102164.28;;;26.67;40.07
72370;BME280;60343;-32.030;115.880;2023-03-19T01:27:23;102159.66;;;27.29;39.64
72370;BME280;60343;-32.030;115.880;2023-03-19T01:29:57;102167.22;;;27.39;37.67
72370;BME280;60343;-32.030;115.880;2023-03-19T01:32:38;102167.50;;;27.20;38.35
72370;BME280;60343;-32.030;115.880;2023-03-19T01:35:12;102157.41;;;26.81;38.56
72370;BME280;60343;-32.030;115.880;2023-03-19T01:37:47;102162.25;;;26.74;38.69
72370;BME280;60343;-32.030;115.880;2023-03-19T01:40:22;102162.09;;;26.52;38.89
72370;BME280;60343;-32.030;115.880;2023-03-19T01:43:09;102159.22;;;26.59;38.73
72370;BME280;60343;-32.030;115.880;2023-03-19T01:45:45;102151.41;;;26.39;39.48
72370;BME280;60343;-32.030;115.880;2023-03-19T01:48:31;102161.06;;;26.70;38.50
72370;BME280;60343;-32.030;115.880;2023-03-19T01:51:10;102151.81;;;27.04;38.67
72370;BME280;60343;-32.030;115.880;2023-03-19T01:53:48;102155.41;;;27.55;37.70
72370;BME280;60343;-32.030;115.880;2023-03-19T01:56:25;102151.78;;;27.71;36.45
72370;BME280;60343;-32.030;115.880;2023-03-19T01:59:05;102149.50;;;28.06;36.54
72370;BME280;60343;-32.030;115.880;2023-03-19T02:01:45;102132.75;;;28.30;35.68
72370;BME280;60343;-32.030;115.880;2023-03-19T02:04:26;102133.50;;;28.52;35.88
72370;BME280;60343;-32.030;115.880;2023-03-19T02:07:03;102127.03;;;28.63;34.98
72370;BME280;60343;-32.030;115.880;2023-03-19T02:09:39;102131.25;;;28.44;35.41
72370;BME280;60343;-32.030;115.880;2023-03-19T02:12:15;102118.81;;;28.41;35.34
72370;BME280;60343;-32.030;115.880;2023-03-19T02:14:49;102119.72;;;28.52;35.43
72370;BME280;60343;-32.030;115.880;2023-03-19T02:17:24;102116.63;;;28.70;34.62
72370;BME280;60343;-32.030;115.880;2023-03-19T02:20:09;102111.75;;;28.77;34.39
72370;BME280;60343;-32.030;115.880;2023-03-19T02:22:54;102115.13;;;28.84;34.88
72370;BME280;60343;-32.030;115.880;2023-03-19T02:25:38;102104.25;;;29.36;34.03
72370;BME280;60343;-32.030;115.880;2023-03-19T02:28:21;102094.47;;;29.66;33.46
72370;BME280;60343;-32.030;115.880;2023-03-19T02:30:56;102099.56;;;29.89;32.58
72370;BME280;60343;-32.030;115.880;2023-03-19T02:33:31;102094.94;;;29.53;33.16
72370;BME280;60343;-32.030;115.880;2023-03-19T02:36:08;102078.59;;;29.36;32.72
72370;BME280;60343;-32.030;115.880;2023-03-19T02:38:44;102067.94;;;29.18;33.50
72370;BME280;60343;-32.030;115.880;2023-03-19T02:41:19;102076.63;;;29.31;32.95
72370;BME280;60343;-32.030;115.880;2023-03-19T02:44:02;102063.75;;;29.47;32.38
72370;BME280;60343;-32.030;115.880;2023-03-19T02:46:38;102061.81;;;29.48;32.40
72370;BME280;60343;-32.030;115.880;2023-03-19T02:49:12;102048.38;;;29.66;32.22
72370;BME280;60343;-32.030;115.880;2023-03-19T02:52:09;102045.50;;;30.03;31.46
72370;BME280;60343;-32.030;115.880;2023-03-19T02:55:10;102048.56;;;30.07;31.48
72370;BME280;60343;-32.030;115.880;2023-03-19T02:57:53;102044.59;;;29.88;31.24
72370;BME280;60343;-32.030;115.880;2023-03-19T03:00:33;102037.19;;;30.03;30.90
72370;BME280;60343;-32.030;115.880;2023-03-19T03:03:08;102028.13;;;30.33;31.37
72370;BME280;60343;-32.030;115.880;2023-03-19T03:05:43;102018.47;;;30.46;30.79
72370;BME280;60343;-32.030;115.880;2023-03-19T03:08:18;102016.81;;;30.90;30.74
72370;BME280;60343;-32.030;115.880;2023-03-19T03:10:52;102007.16;;;31.03;30.14
72370;BME280;60343;-32.030;115.880;2023-03-19T03:13:27;102009.31;;;31.26;29.66
72370;BME280;60343;-32.030;115.880;2023-03-19T03:16:07;101999.31;;;31.30;30.23
72370;BME280;60343;-32.030;115.880;2023-03-19T03:18:42;101998.44;;;31.45;28.79
72370;BME280;60343;-32.030;115.880;2023-03-19T03:21:16;101999.22;;;31.56;28.67
72370;BME280;60343;-32.030;115.880;2023-03-19T03:23:52;101984.03;;;31.48;28.84
72370;BME280;60343;-32.030;115.880;2023-03-19T03:26:26;101986.91;;;31.23;28.75
72370;BME280;60343;-32.030;115.880;2023-03-19T03:29:01;101979.75;;;31.12;29.31
72370;BME280;60343;-32.030;115.880;2023-03-19T03:31:41;101965.69;;;30.88;29.55
72370;BME280;60343;-32.030;115.880;2023-03-19T03:34:16;101957.41;;;30.83;29.48
72370;BME280;60343;-32.030;115.880;2023-03-19T03:36:50;101959.34;;;30.67;29.61
72370;BME280;60343;-32.030;115.880;2023-03-19T03:39:25;101954.09;;;30.71;30.01
72370;BME280;60343;-32.030;115.880;2023-03-19T03:42:00;101949.16;;;30.47;30.35
72370;BME280;60343;-32.030;115.880;2023-03-19T03:44:35;101949.13;;;30.37;29.89
72370;BME280;60343;-32.030;115.880;2023-03-19T03:47:15;101931.72;;;30.26;30.36
72370;BME280;60343;-32.030;115.880;2023-03-19T03:49:50;101925.38;;;30.46;29.66
72370;BME280;60343;-32.030;115.880;2023-03-19T03:52:24;101928.09;;;30.77;29.29
72370;BME280;60343;-32.030;115.880;2023-03-19T03:55:00;101912.56;;;30.86;28.67
72370;BME280;60343;-32.030;115.880;2023-03-19T03:57:35;101918.09;;;30.86;29.52
72370;BME280;60343;-32.030;115.880;2023-03-19T04:00:11;101908.09;;;31.10;29.24
72370;BME280;60343;-32.030;115.880;2023-03-19T04:02:51;101914.06;;;31.37;28.73
72370;BME280;60343;-32.030;115.880;2023-03-19T04:05:26;101902.25;;;31.71;27.75
72370;BME280;60343;-32.030;115.880;2023-03-19T04:08:00;101886.59;;;31.90;27.23
72370;BME280;60343;-32.030;115.880;2023-03-19T04:10:38;101885.72;;;31.94;27.44
72370;BME280;60343;-32.030;115.880;2023-03-19T04:13:13;101880.34;;;32.13;26.75
72370;BME280;60343;-32.030;115.880;2023-03-19T04:15:51;101878.00;;;32.25;26.02
72370;BME280;60343;-32.030;115.880;2023-03-19T04:18:31;101879.00;;;32.06;26.62
72370;BME280;60343;-32.030;115.880;2023-03-19T04:21:07;101874.13;;;31.92;27.20
72370;BME280;60343;-32.030;115.880;2023-03-19T04:23:41;101875.47;;;31.95;27.37
72370;BME280;60343;-32.030;115.880;2023-03-19T04:26:16;101879.81;;;32.11;27.01
72370;BME280;60343;-32.030;115.880;2023-03-19T04:28:51;101857.34;;;32.13;26.69
72370;BME280;60343;-32.030;115.880;2023-03-19T04:31:25;101865.91;;;31.82;26.82
72370;BME280;60343;-32.030;115.880;2023-03-19T04:34:05;101851.53;;;31.75;27.93
72370;BME280;60343;-32.030;115.880;2023-03-19T04:36:41;101858.84;;;31.95;26.98
72370;BME280;60343;-32.030;115.880;2023-03-19T04:39:16;101843.97;;;31.86;27.05
72370;BME280;60343;-32.030;115.880;2023-03-19T04:41:51;101847.53;;;31.91;26.71
72370;BME280;60343;-32.030;115.880;2023-03-19T04:44:26;101832.94;;;32.15;25.81
72370;BME280;60343;-32.030;115.880;2023-03-19T04:47:00;101824.38;;;32.11;26.99
72370;BME280;60343;-32.030;115.880;2023-03-19T04:49:42;101825.63;;;32.53;25.87
72370;BME280;60343;-32.030;115.880;2023-03-19T04:52:16;101812.25;;;32.55;25.84
72370;BME280;60343;-32.030;115.880;2023-03-19T04:54:51;101817.53;;;32.80;25.50
72370;BME280;60343;-32.030;115.880;2023-03-19T04:57:25;101810.31;;;33.03;24.21
72370;BME280;60343;-32.030;115.880;2023-03-19T05:00:00;101800.25;;;33.07;24.16
72370;BME280;60343;-32.030;115.880;2023-03-19T05:02:34;101793.59;;;33.08;24.06
72370;BME280;60343;-32.030;115.880;2023-03-19T05:05:15;101784.03;;;33.19;24.55
72370;BME280;60343;-32.030;115.880;2023-03-19T05:07:49;101776.28;;;33.16;24.28
72370;BME280;60343;-32.030;115.880;2023-03-19T05:10:24;101772.97;;;33.33;24.27
72370;BME280;60343;-32.030;115.880;2023-03-19T05:12:59;101768.97;;;33.57;23.55
72370;BME280;60343;-32.030;115.880;2023-03-19T05:15:33;101765.34;;;33.57;23.78
72370;BME280;60343;-32.030;115.880;2023-03-19T05:18:08;101763.38;;;33.76;23.28
72370;BME280;60343;-32.030;115.880;2023-03-19T05:20:48;101751.78;;;33.88;23.30
72370;BME280;60343;-32.030;115.880;2023-03-19T05:23:23;101754.91;;;34.00;22.76
72370;BME280;60343;-32.030;115.880;2023-03-19T05:25:59;101751.50;;;34.17;22.70
72370;BME280;60343;-32.030;115.880;2023-03-19T05:28:34;101748.31;;;34.10;23.21
72370;BME280;60343;-32.030;115.880;2023-03-19T05:31:08;101742.78;;;34.51;22.61
72370;BME280;60343;-32.030;115.880;2023-03-19T05:33:43;101734.09;;;34.66;21.14
72370;BME280;60343;-32.030;115.880;2023-03-19T05:36:23;101725.25;;;34.64;21.50
72370;BME280;60343;-32.030;115.880;2023-03-19T05:38:58;101727.38;;;34.94;21.87
72370;BME280;60343;-32.030;115.880;2023-03-19T05:41:32;101722.75;;;34.90;22.32
72370;BME280;60343;-32.030;115.880;2023-03-19T05:44:07;101716.06;;;35.13;22.19
72370;BME280;60343;-32.030;115.880;2023-03-19T05:46:42;101710.00;;;35.55;21.51
72370;BME280;60343;-32.030;115.880;2023-03-19T05:49:16;101693.53;;;35.67;21.10
72370;BME280;60343;-32.030;115.880;2023-03-19T05:51:56;101700.34;;;35.84;20.26
72370;BME280;60343;-32.030;115.880;2023-03-19T05:54:31;101685.63;;;35.61;20.43
72370;BME280;60343;-32.030;115.880;2023-03-19T05:57:05;101689.72;;;35.86;21.12
72370;BME280;60343;-32.030;115.880;2023-03-19T05:59:40;101682.91;;;36.09;20.59
72370;BME280;60343;-32.030;115.880;2023-03-19T06:02:14;101681.19;;;36.22;20.77
72370;BME280;60343;-32.030;115.880;2023-03-19T06:04:49;101681.50;;;36.29;19.48
72370;BME280;60343;-32.030;115.880;2023-03-19T06:07:29;101677.41;;;35.87;20.38
72370;BME280;60343;-32.030;115.880;2023-03-19T06:10:05;101668.94;;;36.00;20.35
72370;BME280;60343;-32.030;115.880;2023-03-19T06:12:39;101671.53;;;35.97;20.08
72370;BME280;60343;-32.030;115.880;2023-03-19T06:15:14;101652.94;;;35.75;20.45
72370;BME280;60343;-32.030;115.880;2023-03-19T06:17:48;101651.09;;;36.10;20.26
72370;BME280;60343;-32.030;115.880;2023-03-19T06:20:23;101642.47;;;36.37;19.22
72370;BME280;60343;-32.030;115.880;2023-03-19T06:23:04;101646.81;;;36.69;20.25
72370;BME280;60343;-32.030;115.880;2023-03-19T06:25:38;101639.03;;;36.58;19.47
72370;BME280;60343;-32.030;115.880;2023-03-19T06:28:13;101639.41;;;36.65;18.98
72370;BME280;60343;-32.030;115.880;2023-03-19T06:30:47;101632.66;;;36.83;19.02
72370;BME280;60343;-32.030;115.880;2023-03-19T06:33:22;101624.00;;;36.76;19.39
72370;BME280;60343;-32.030;115.880;2023-03-19T06:35:58;101625.94;;;37.01;18.68
72370;BME280;60343;-32.030;115.880;2023-03-19T06:38:38;101618.31;;;37.27;18.86
72370;BME280;60343;-32.030;115.880;2023-03-19T06:41:13;101619.09;;;37.45;18.63
72370;BME280;60343;-32.030;115.880;2023-03-19T06:43:47;101612.84;;;37.48;18.56
72370;BME280;60343;-32.030;115.880;2023-03-19T06:46:22;101605.47;;;37.44;18.40
72370;BME280;60343;-32.030;115.880;2023-03-19T06:48:56;101610.06;;;37.57;17.67
72370;BME280;60343;-32.030;115.880;2023-03-19T06:51:31;101600.19;;;37.51;18.03
72370;BME280;60343;-32.030;115.880;2023-03-19T06:54:11;101593.88;;;37.24;18.91
72370;BME280;60343;-32.030;115.880;2023-03-19T06:56:45;101587.22;;;37.55;18.33
72370;BME280;60343;-32.030;115.880;2023-03-19T06:59:20;101595.59;;;37.93;17.64
72370;BME280;60343;-32.030;115.880;2023-03-19T07:01:55;101588.19;;;37.50;17.71
72370;BME280;60343;-32.030;115.880;2023-03-19T07:04:29;101590.34;;;37.45;17.81
72370;BME280;60343;-32.030;115.880;2023-03-19T07:07:04;101589.66;;;37.48;17.78
72370;BME280;60343;-32.030;115.880;2023-03-19T07:09:44;101588.69;;;37.44;18.34
72370;BME280;60343;-32.030;115.880;2023-03-19T07:12:19;101581.88;;;37.70;17.63
72370;BME280;60343;-32.030;115.880;2023-03-19T07:14:54;101580.47;;;37.85;17.48
72370;BME280;60343;-32.030;115.880;2023-03-19T07:17:28;101576.53;;;37.57;17.60
72370;BME280;60343;-32.030;115.880;2023-03-19T07:20:03;101578.38;;;37.82;17.57
72370;BME280;60343;-32.030;115.880;2023-03-19T07:22:38;101569.59;;;37.92;17.18
72370;BME280;60343;-32.030;115.880;2023-03-19T07:25:18;101571.47;;;37.79;16.88
72370;BME280;60343;-32.030;115.880;2023-03-19T07:27:53;101563.44;;;38.07;17.02
72370;BME280;60343;-32.030;115.880;2023-03-19T07:30:27;101570.81;;;38.12;17.23
72370;BME280;60343;-32.030;115.880;2023-03-19T07:33:02;101568.88;;;38.25;16.84
72370;BME280;60343;-32.030;115.880;2023-03-19T07:35:36;101558.84;;;38.23;16.52
72370;BME280;60343;-32.030;115.880;2023-03-19T07:38:11;101563.38;;;37.49;17.84
72370;BME280;60343;-32.030;115.880;2023-03-19T07:40:51;101557.59;;;37.07;18.06
72370;BME280;60343;-32.030;115.880;2023-03-19T07:43:26;101559.94;;;36.36;18.27
72370;BME280;60343;-32.030;115.880;2023-03-19T07:46:00;101552.28;;;35.37;19.85
72370;BME280;60343;-32.030;115.880;2023-03-19T07:48:35;101548.41;;;35.16;20.13
72370;BME280;60343;-32.030;115.880;2023-03-19T07:51:09;101557.28;;;34.96;20.10
72370;BME280;60343;-32.030;115.880;2023-03-19T07:53:44;101556.16;;;34.74;20.46
72370;BME280;60343;-32.030;115.880;2023-03-19T07:56:24;101552.84;;;34.50;19.95
72370;BME280;60343;-32.030;115.880;2023-03-19T07:58:59;101553.25;;;34.43;20.29
72370;BME280;60343;-32.030;115.880;2023-03-19T08:01:33;101550.47;;;34.43;20.02
72370;BME280;60343;-32.030;115.880;2023-03-19T08:04:08;101551.25;;;34.22;20.09
72370;BME280;60343;-32.030;115.880;2023-03-19T08:06:43;101548.19;;;34.23;20.34
72370;BME280;60343;-32.030;115.880;2023-03-19T08:09:17;101545.06;;;34.11;20.57
72370;BME280;60343;-32.030;115.880;2023-03-19T08:11:58;101550.06;;;33.87;20.34
72370;BME280;60343;-32.030;115.880;2023-03-19T08:14:32;101542.75;;;33.63;20.89
72370;BME280;60343;-32.030;115.880;2023-03-19T08:17:08;101537.72;;;33.25;21.45
72370;BME280;60343;-32.030;115.880;2023-03-19T08:19:43;101541.00;;;33.27;22.54
72370;BME280;60343;-32.030;115.880;2023-03-19T08:22:18;101532.38;;;33.42;21.17
72370;BME280;60343;-32.030;115.880;2023-03-19T08:24:52;101531.13;;;33.48;20.96
72370;BME280;60343;-32.030;115.880;2023-03-19T08:27:32;101533.59;;;33.22;21.00
72370;BME280;60343;-32.030;115.880;2023-03-19T08:30:11;101533.78;;;33.26;21.75
72370;BME280;60343;-32.030;115.880;2023-03-19T08:32:45;101533.78;;;33.26;21.14
72370;BME280;60343;-32.030;115.880;2023-03-19T08:35:20;101526.81;;;33.28;21.47
72370;BME280;60343;-32.030;115.880;2023-03-19T08:37:54;101526.00;;;33.28;21.06
72370;BME280;60343;-32.030;115.880;2023-03-19T08:40:29;101524.13;;;33.37;20.93
72370;BME280;60343;-32.030;115.880;2023-03-19T08:43:09;101518.19;;;33.30;21.16
72370;BME280;60343;-32.030;115.880;2023-03-19T08:45:44;101527.41;;;33.25;21.81
72370;BME280;60343;-32.030;115.880;2023-03-19T08:48:18;101527.84;;;33.18;22.28
72370;BME280;60343;-32.030;115.880;2023-03-19T08:50:54;101528.97;;;33.17;21.84
72370;BME280;60343;-32.030;115.880;2023-03-19T08:53:29;101529.50;;;33.19;21.27
72370;BME280;60343;-32.030;115.880;2023-03-19T08:56:05;101519.56;;;33.13;21.67
72370;BME280;60343;-32.030;115.880;2023-03-19T08:58:45;101527.00;;;33.18;22.27
72370;BME280;60343;-32.030;115.880;2023-03-19T09:01:20;101532.31;;;33.14;21.58
72370;BME280;60343;-32.030;115.880;2023-03-19T09:03:54;101526.13;;;33.04;22.02
72370;BME280;60343;-32.030;115.880;2023-03-19T09:06:29;101526.13;;;33.04;21.28
72370;BME280;60343;-32.030;115.880;2023-03-19T09:09:04;101524.66;;;32.79;22.11
72370;BME280;60343;-32.030;115.880;2023-03-19T09:11:39;101528.66;;;32.87;21.95
72370;BME280;60343;-32.030;115.880;2023-03-19T09:14:19;101527.72;;;32.77;21.38
72370;BME280;60343;-32.030;115.880;2023-03-19T09:16:53;101533.34;;;32.72;21.56
72370;BME280;60343;-32.030;115.880;2023-03-19T09:19:28;101525.03;;;32.72;21.56
72370;BME280;60343;-32.030;115.880;2023-03-19T09:22:03;101526.97;;;32.72;21.63
72370;BME280;60343;-32.030;115.880;2023-03-19T09:24:38;101534.59;;;32.61;22.00
72370;BME280;60343;-32.030;115.880;2023-03-19T09:27:12;101530.41;;;32.45;21.91
72370;BME280;60343;-32.030;115.880;2023-03-19T09:29:53;101531.13;;;32.37;21.78
72370;BME280;60343;-32.030;115.880;2023-03-19T09:32:29;101532.84;;;32.33;21.96
72370;BME280;60343;-32.030;115.880;2023-03-19T09:35:04;101536.81;;;32.27;22.05
72370;BME280;60343;-32.030;115.880;2023-03-19T09:37:38;101533.91;;;32.18;21.92
72370;BME280;60343;-32.030;115.880;2023-03-19T09:40:20;101538.69;;;32.13;21.94
72370;BME280;60343;-32.030;115.880;2023-03-19T09:43:09;101535.13;;;32.07;22.01
72370;BME280;60343;-32.030;115.880;2023-03-19T09:45:57;101533.63;;;31.96;22.24
72370;BME280;60343;-32.030;115.880;2023-03-19T09:48:34;101546.28;;;31.83;22.11
72370;BME280;60343;-32.030;115.880;2023-03-19T09:51:20;101550.72;;;31.79;22.35
72370;BME280;60343;-32.030;115.880;2023-03-19T09:54:00;101551.44;;;31.66;22.66
72370;BME280;60343;-32.030;115.880;2023-03-19T09:56:37;101563.78;;;31.50;22.78
72370;BME280;60343;-32.030;115.880;2023-03-19T09:59:12;101557.03;;;31.37;23.00
72370;BME280;60343;-32.030;115.880;2023-03-19T10:01:56;101561.19;;;31.35;22.94
72370;BME280;60343;-32.030;115.880;2023-03-19T10:04:49;101564.56;;;31.03;23.63
72370;BME280;60343;-32.030;115.880;2023-03-19T10:07:37;101565.00;;;30.81;24.35
72370;BME280;60343;-32.030;115.880;2023-03-19T10:10:25;101564.63;;;30.93;23.45
72370;BME280;60343;-32.030;115.880;2023-03-19T10:13:10;101565.91;;;30.72;24.18
72370;BME280;60343;-32.030;115.880;2023-03-19T10:15:46;101571.78;;;30.60;23.89
72370;BME280;60343;-32.030;115.880;2023-03-19T10:18:32;101567.75;;;30.47;24.42
72370;BME280;60343;-32.030;115.880;2023-03-19T10:21:10;101580.81;;;30.26;24.57
72370;BME280;60343;-32.030;115.880;2023-03-19T10:23:49;101578.91;;;30.22;24.46
72370;BME280;60343;-32.030;115.880;2023-03-19T10:26:29;101583.13;;;30.09;24.82
72370;BME280;60343;-32.030;115.880;2023-03-19T10:29:06;101589.53;;;29.95;24.91
72370;BME280;60343;-32.030;115.880;2023-03-19T10:31:46;101592.88;;;29.92;25.03
72370;BME280;60343;-32.030;115.880;2023-03-19T10:34:40;101587.94;;;29.68;25.28
72370;BME280;60343;-32.030;115.880;2023-03-19T10:37:16;101589.38;;;29.51;25.62
72370;BME280;60343;-32.030;115.880;2023-03-19T10:39:54;101588.84;;;29.23;26.33
72370;BME280;60343;-32.030;115.880;2023-03-19T10:42:47;101587.50;;;29.00;26.58
72370;BME280;60343;-32.030;115.880;2023-03-19T10:45:29;101591.34;;;28.89;26.63
72370;BME280;60343;-32.030;115.880;2023-03-19T10:48:05;101595.75;;;28.75;26.92
72370;BME280;60343;-32.030;115.880;2023-03-19T10:50:48;101596.81;;;28.69;27.27
72370;BME280;60343;-32.030;115.880;2023-03-19T10:53:30;101596.78;;;28.49;27.37
72370;BME280;60343;-32.030;115.880;2023-03-19T10:56:09;101603.66;;;28.36;27.68
72370;BME280;60343;-32.030;115.880;2023-03-19T10:59:00;101601.91;;;28.15;28.08
72370;BME280;60343;-32.030;115.880;2023-03-19T11:01:37;101596.06;;;28.01;28.27
72370;BME280;60343;-32.030;115.880;2023-03-19T11:04:17;101604.22;;;27.81;28.91
72370;BME280;60343;-32.030;115.880;2023-03-19T11:07:05;101605.81;;;27.72;28.73
72370;BME280;60343;-32.030;115.880;2023-03-19T11:09:45;101605.97;;;27.50;29.49
72370;BME280;60343;-32.030;115.880;2023-03-19T11:12:21;101606.06;;;27.28;29.79
72370;BME280;60343;-32.030;115.880;2023-03-19T11:14:59;101615.03;;;27.14;30.47
72370;BME280;60343;-32.030;115.880;2023-03-19T11:17:38;101615.69;;;26.94;30.55
72370;BME280;60343;-32.030;115.880;2023-03-19T11:20:21;101625.38;;;26.75;31.17
72370;BME280;60343;-32.030;115.880;2023-03-19T11:23:05;101623.34;;;26.65;31.31
72370;BME280;60343;-32.030;115.880;2023-03-19T11:25:41;101623.19;;;26.50;31.83
72370;BME280;60343;-32.030;115.880;2023-03-19T11:28:17;101631.22;;;26.30;32.25
72370;BME280;60343;-32.030;115.880;2023-03-19T11:30:57;101636.97;;;26.12;32.53
72370;BME280;60343;-32.030;115.880;2023-03-19T11:33:47;101639.09;;;26.04;32.64
72370;BME280;60343;-32.030;115.880;2023-03-19T11:36:29;101643.84;;;25.92;32.73
72370;BME280;60343;-32.030;115.880;2023-03-19T11:39:20;101649.22;;;25.82;33.33
72370;BME280;60343;-32.030;115.880;2023-03-19T11:42:16;101647.31;;;25.66;33.78
72370;BME280;60343;-32.030;115.880;2023-03-19T11:45:06;101650.06;;;25.49;34.29
72370;BME280;60343;-32.030;115.880;2023-03-19T11:47:49;101654.44;;;25.50;34.17
72370;BME280;60343;-32.030;115.880;2023-03-19T11:50:32;101660.44;;;25.47;33.94
72370;BME280;60343;-32.030;115.880;2023-03-19T11:53:20;101656.94;;;25.52;33.16
72370;BME280;60343;-32.030;115.880;2023-03-19T11:56:13;101658.31;;;25.49;33.32
72370;BME280;60343;-32.030;115.880;2023-03-19T12:04:57;101663.47;;;25.62;32.88
72370;BME280;60343;-32.030;115.880;2023-03-19T12:07:40;101670.53;;;25.58;33.24
72370;BME280;60343;-32.030;115.880;2023-03-19T12:10:32;101675.69;;;25.55;32.86
72370;BME280;60343;-32.030;115.880;2023-03-19T12:13:24;101685.13;;;25.47;33.26
72370;BME280;60343;-32.030;115.880;2023-03-19T12:16:08;101681.31;;;25.48;33.05
72370;BME280;60343;-32.030;115.880;2023-03-19T12:19:03;101685.63;;;25.44;33.09
72370;BME280;60343;-32.030;115.880;2023-03-19T12:21:49;101684.97;;;25.37;33.09
72370;BME280;60343;-32.030;115.880;2023-03-19T12:24:37;101684.63;;;25.34;33.09
72370;BME280;60343;-32.030;115.880;2023-03-19T12:27:22;101681.00;;;25.45;32.35
72370;BME280;60343;-32.030;115.880;2023-03-19T12:30:13;101672.75;;;25.45;32.17
72370;BME280;60343;-32.030;115.880;2023-03-19T12:33:10;101677.81;;;25.53;31.80
72370;BME280;60343;-32.030;115.880;2023-03-19T12:35:52;101683.28;;;25.53;31.67
72370;BME280;60343;-32.030;115.880;2023-03-19T12:38:33;101676.50;;;25.55;31.66
72370;BME280;60343;-32.030;115.880;2023-03-19T12:41:12;101687.00;;;25.58;31.46
72370;BME280;60343;-32.030;115.880;2023-03-19T12:43:53;101680.44;;;25.59;30.94
72370;BME280;60343;-32.030;115.880;2023-03-19T12:46:37;101684.31;;;25.63;30.88
72370;BME280;60343;-32.030;115.880;2023-03-19T12:49:16;101686.75;;;25.60;31.10
72370;BME280;60343;-32.030;115.880;2023-03-19T12:51:55;101687.63;;;25.66;30.59
72370;BME280;60343;-32.030;115.880;2023-03-19T12:54:34;101687.31;;;25.62;30.97
72370;BME280;60343;-32.030;115.880;2023-03-19T12:57:14;101671.00;;;25.55;30.80
72370;BME280;60343;-32.030;115.880;2023-03-19T12:59:54;101670.91;;;25.50;30.91
72370;BME280;60343;-32.030;115.880;2023-03-19T13:02:43;101663.88;;;25.54;30.39
72370;BME280;60343;-32.030;115.880;2023-03-19T13:05:28;101666.00;;;25.52;30.54
72370;BME280;60343;-32.030;115.880;2023-03-19T13:08:09;101665.19;;;25.52;30.33
72370;BME280;60343;-32.030;115.880;2023-03-19T13:10:46;101660.22;;;25.49;30.20
72370;BME280;60343;-32.030;115.880;2023-03-19T13:13:30;101655.28;;;25.51;30.13
72370;BME280;60343;-32.030;115.880;2023-03-19T13:16:19;101651.56;;;25.40;30.19
72370;BME280;60343;-32.030;115.880;2023-03-19T13:19:06;101646.22;;;25.50;30.11
72370;BME280;60343;-32.030;115.880;2023-03-19T13:21:45;101647.56;;;25.31;30.21
72370;BME280;60343;-32.030;115.880;2023-03-19T13:24:25;101647.91;;;25.18;30.56